Time;durP1;ratioP1;P1;durP2;ratioP2;P2;SDS_P1;SDS_P2;PMS_P1;PMS_P2;Temp;Humidity;BMP_temperature;BMP_pressure;BME280_temperature;BME280_humidity;BME280_pressure;Samples;Min_cycle;Max_cycle;Signal;HPM_P1;HPM_P2
2021/11/08 00:02:19;;;;;;;30.20;19.48;;;;;;;8.88;100.00;100340.88;5113524;28;20046;-70
2021/11/08 00:04:48;;;;;;;31.75;19.63;;;;;;;8.96;100.00;100341.31;5113374;28;20646;-70
2021/11/08 00:07:17;;;;;;;32.50;19.35;;;;;;;9.00;100.00;100356.22;5113640;28;20062;-69
2021/11/08 00:09:46;;;;;;;31.20;18.67;;;;;;;8.96;100.00;100324.50;5113567;28;20477;-70
2021/11/08 00:12:16;;;;;;;32.97;19.88;;;;;;;8.96;100.00;100330.69;5113232;28;20047;-70
2021/11/08 00:14:46;;;;;;;29.80;19.05;;;;;;;8.94;100.00;100340.56;5094977;28;20079;-71
2021/11/08 00:17:26;;;;;;;33.83;20.38;;;;;;;8.89;100.00;100345.28;5113525;28;20043;-70
2021/11/08 00:20:07;;;;;;;32.95;20.63;;;;;;;8.79;100.00;100344.88;5113119;28;20472;-71
2021/11/08 00:22:38;;;;;;;33.67;19.88;;;;;;;8.72;100.00;100345.25;5113298;28;20039;-71
2021/11/08 00:25:08;;;;;;;34.20;19.98;;;;;;;8.69;100.00;100334.78;5095838;28;20122;-71
2021/11/08 00:27:37;;;;;;;33.08;19.33;;;;;;;8.80;100.00;100303.19;5112853;28;20062;-71
2021/11/08 00:30:06;;;;;;;29.83;18.48;;;;;;;8.93;100.00;100301.59;5115407;28;20039;-71
2021/11/08 00:32:36;;;;;;;32.60;19.40;;;;;;;8.87;100.00;100321.38;5117279;28;20040;-71
2021/11/08 00:35:06;;;;;;;27.70;17.33;;;;;;;8.93;100.00;100322.88;5117707;28;20047;-71
2021/11/08 00:37:35;;;;;;;22.73;14.07;;;;;;;9.05;100.00;100335.53;5116998;28;20047;-71
2021/11/08 00:40:06;;;;;;;28.60;15.75;;;;;;;9.03;100.00;100348.06;5117483;28;20048;-71
2021/11/08 00:42:35;;;;;;;29.63;18.08;;;;;;;8.95;100.00;100334.28;5117353;28;20055;-71
2021/11/08 00:45:04;;;;;;;28.35;17.30;;;;;;;8.87;100.00;100313.41;5117502;28;20097;-71
2021/11/08 00:47:34;;;;;;;24.70;14.93;;;;;;;8.98;100.00;100312.00;5117046;28;20047;-72
2021/11/08 00:50:05;;;;;;;25.63;14.70;;;;;;;8.97;100.00;100324.41;5117358;28;20047;-71
2021/11/08 00:52:36;;;;;;;25.35;15.15;;;;;;;8.93;100.00;100328.19;5117031;28;20043;-72
2021/11/08 00:55:09;;;;;;;24.63;15.13;;;;;;;8.92;100.00;100326.47;5117236;28;20047;-71
2021/11/08 00:57:39;;;;;;;;;;;;;;;9.14;100.00;100336.84;5117234;28;20480;-72
2021/11/08 01:00:12;;;;;;;22.92;14.20;;;;;;;9.05;100.00;100330.19;5117135;28;19959;-71
2021/11/08 01:02:41;;;;;;;23.98;14.75;;;;;;;9.12;100.00;100341.41;5116881;28;20135;-71
2021/11/08 01:05:14;;;;;;;21.88;11.52;;;;;;;9.25;100.00;100331.81;5117288;28;20399;-71
2021/11/08 01:07:43;;;;;;;21.27;11.27;;;;;;;9.11;100.00;100337.88;5116760;28;20048;-70
2021/11/08 01:10:15;;;;;;;19.85;10.57;;;;;;;9.09;100.00;100341.56;5116801;28;20142;-70
2021/11/08 01:12:44;;;;;;;18.73;10.50;;;;;;;8.99;100.00;100346.50;5116252;28;20519;-70
2021/11/08 01:15:14;;;;;;;16.67;10.18;;;;;;;8.95;100.00;100350.25;5116933;28;20047;-69
2021/11/08 01:17:43;;;;;;;20.10;11.57;;;;;;;8.88;100.00;100346.22;5116687;28;20039;-70
2021/11/08 01:20:14;;;;;;;19.33;10.85;;;;;;;8.86;100.00;100340.09;5095059;28;20052;-69
2021/11/08 01:22:42;;;;;;;18.30;11.30;;;;;;;8.84;100.00;100347.28;5096041;28;20378;-69
2021/11/08 01:25:12;;;;;;;20.10;11.10;;;;;;;8.79;100.00;100341.38;5094891;28;20121;-70
2021/11/08 01:27:43;;;;;;;18.92;11.02;;;;;;;8.79;100.00;100336.03;5095819;28;20438;-71
2021/11/08 01:30:14;;;;;;;17.23;9.98;;;;;;;8.85;100.00;100346.34;5096375;28;20036;-71
2021/11/08 01:32:51;;;;;;;19.55;10.63;;;;;;;8.85;100.00;100338.38;5095876;28;20036;-71
2021/11/08 01:35:29;;;;;;;19.40;10.38;;;;;;;8.82;100.00;100328.75;5096252;28;20040;-70
2021/11/08 01:38:07;;;;;;;17.50;10.73;;;;;;;8.78;100.00;100324.53;5096247;28;20112;-70
2021/11/08 01:40:37;;;;;;;16.63;10.00;;;;;;;8.79;100.00;100328.06;5094921;28;20129;-71
2021/11/08 01:43:05;;;;;;;16.83;9.85;;;;;;;8.73;100.00;100328.38;5096189;28;20050;-69
2021/11/08 01:45:35;;;;;;;16.90;9.98;;;;;;;8.73;100.00;100334.53;5095607;28;20109;-69
2021/11/08 01:48:04;;;;;;;16.48;9.88;;;;;;;8.70;100.00;100339.16;5095771;28;20440;-70
2021/11/08 01:50:34;;;;;;;17.50;10.23;;;;;;;8.79;100.00;100318.28;5095847;28;20044;-71
2021/11/08 01:53:04;;;;;;;16.17;9.90;;;;;;;8.76;100.00;100310.44;5095493;28;20058;-71
2021/11/08 01:55:33;;;;;;;17.25;9.85;;;;;;;8.66;100.00;100342.91;5095637;28;20040;-71
2021/11/08 01:58:02;;;;;;;14.80;9.48;;;;;;;8.63;100.00;100343.06;5095728;28;20047;-71
2021/11/08 02:00:31;;;;;;;14.70;8.82;;;;;;;8.73;100.00;100339.00;5095319;28;20473;-71
2021/11/08 02:02:59;;;;;;;15.02;9.20;;;;;;;8.66;100.00;100353.53;5095220;28;20516;-71
2021/11/08 02:05:29;;;;;;;12.55;8.50;;;;;;;8.69;100.00;100364.03;5095759;28;20040;-71
2021/11/08 02:08:02;;;;;;;14.80;8.63;;;;;;;8.72;100.00;100362.09;5095456;28;20040;-73
2021/11/08 02:10:30;;;;;;;14.70;8.43;;;;;;;8.82;100.00;100354.50;5095380;28;20040;-73
2021/11/08 02:12:58;;;;;;;13.27;8.13;;;;;;;8.82;100.00;100341.19;5094995;28;20078;-73
2021/11/08 02:15:27;;;;;;;13.88;7.63;;;;;;;8.71;100.00;100332.91;5095093;28;20044;-73
2021/11/08 02:17:56;;;;;;;10.85;7.35;;;;;;;8.61;100.00;100335.19;5094737;28;20044;-73
2021/11/08 02:20:28;;;;;;;12.45;7.18;;;;;;;8.55;100.00;100331.03;5103169;28;20539;-72
2021/11/08 02:22:59;;;;;;;11.75;7.05;;;;;;;8.68;100.00;100306.44;5115255;28;20090;-72
2021/11/08 02:25:30;;;;;;;12.35;7.35;;;;;;;8.73;100.00;100309.75;5115584;28;20427;-71
2021/11/08 02:27:59;;;;;;;10.27;6.63;;;;;;;8.79;100.00;100322.75;5114813;28;20142;-71
2021/11/08 02:30:30;;;;;;;11.98;6.80;;;;;;;8.84;100.00;100331.34;5115481;28;20048;-71
2021/11/08 02:33:00;;;;;;;13.05;7.55;;;;;;;8.82;100.00;100322.56;5114956;28;20048;-70
2021/11/08 02:35:31;;;;;;;10.93;6.82;;;;;;;8.86;100.00;100308.16;5115471;28;20132;-71
2021/11/08 02:38:01;;;;;;;11.95;7.07;;;;;;;8.72;100.00;100310.69;5096756;28;20131;-71
2021/11/08 02:40:30;;;;;;;10.73;6.57;;;;;;;8.66;100.00;100319.84;5114933;28;20126;-71
2021/11/08 02:43:01;;;;;;;13.55;7.40;;;;;;;8.59;100.00;100337.06;5114878;28;20051;-71
2021/11/08 02:45:31;;;;;;;13.90;6.72;;;;;;;8.62;100.00;100349.34;5115361;28;20472;-71
2021/11/08 02:48:00;;;;;;;11.63;6.40;;;;;;;8.75;100.00;100331.81;5114735;28;20047;-71
2021/11/08 02:50:34;;;;;;;10.30;7.00;;;;;;;8.57;100.00;100318.50;5114732;28;20407;-71
2021/11/08 02:53:03;;;;;;;11.20;6.85;;;;;;;8.64;100.00;100318.19;5113825;28;20044;-71
2021/11/08 02:55:31;;;;;;;12.32;6.95;;;;;;;8.70;100.00;100333.84;5114618;28;20481;-71
2021/11/08 02:58:00;;;;;;;13.27;7.55;;;;;;;8.64;100.00;100363.41;5114630;28;20047;-71
2021/11/08 03:00:31;;;;;;;11.50;7.35;;;;;;;8.63;100.00;100367.88;5114743;28;20067;-71
2021/11/08 03:03:00;;;;;;;12.45;7.03;;;;;;;8.51;100.00;100377.31;5114407;28;20885;-71
2021/11/08 03:05:33;;;;;;;10.75;6.63;;;;;;;8.64;100.00;100384.69;5114724;28;20044;-71
2021/11/08 03:08:08;;;;;;;11.25;7.40;;;;;;;8.57;100.00;100377.00;5114065;28;20503;-71
2021/11/08 03:10:40;;;;;;;11.55;6.45;;;;;;;8.58;100.00;100357.44;5114434;28;20039;-71
2021/11/08 03:13:14;;;;;;;10.63;6.18;;;;;;;8.63;100.00;100348.38;5114782;28;20400;-70
2021/11/08 03:15:57;;;;;;;11.40;6.63;;;;;;;8.52;100.00;100336.50;5114293;28;20048;-71
2021/11/08 03:18:32;;;;;;;11.77;6.95;;;;;;;8.56;100.00;100342.50;5114595;28;20232;-70
2021/11/08 03:21:00;;;;;;;14.30;7.50;;;;;;;8.47;100.00;100365.09;5114177;28;20116;-71
2021/11/08 03:23:31;;;;;;;11.68;7.30;;;;;;;8.38;100.00;100380.63;5114392;28;20043;-71
2021/11/08 03:26:10;;;;;;;10.82;6.78;;;;;;;8.46;100.00;100387.31;5114236;28;20515;-71
2021/11/08 03:28:38;;;;;;;10.30;6.53;;;;;;;8.57;100.00;100377.00;5114168;28;20088;-71
2021/11/08 03:31:10;;;;;;;10.88;6.78;;;;;;;8.52;100.00;100375.53;5114305;28;20456;-71
2021/11/08 03:33:39;;;;;;;9.75;6.22;;;;;;;8.58;100.00;100375.19;5113914;28;20377;-71
2021/11/08 03:36:09;;;;;;;12.30;6.97;;;;;;;8.57;100.00;100381.44;5114251;28;20122;-70
2021/11/08 03:38:44;;;;;;;11.65;7.10;;;;;;;8.49;100.00;100381.84;5114168;28;20048;-70
2021/11/08 03:41:13;;;;;;;11.77;7.03;;;;;;;8.35;100.00;100368.38;5114340;28;20047;-70
2021/11/08 03:43:41;;;;;;;12.60;7.18;;;;;;;8.36;100.00;100379.84;5114053;28;20044;-70
2021/11/08 03:46:10;;;;;;;11.82;7.07;;;;;;;8.47;100.00;100385.50;5114018;28;20134;-68
2021/11/08 03:48:38;;;;;;;11.30;7.07;;;;;;;8.51;100.00;100374.66;5113669;28;20445;-70
2021/11/08 03:51:08;;;;;;;11.48;6.15;;;;;;;8.46;100.00;100366.03;5113743;28;20164;-70
2021/11/08 03:53:38;;;;;;;12.10;7.22;;;;;;;8.47;100.00;100362.44;5113489;28;20043;-69
2021/11/08 03:56:08;;;;;;;11.77;6.78;;;;;;;8.48;100.00;100374.78;5113498;28;20047;-69
2021/11/08 03:58:36;;;;;;;10.70;6.78;;;;;;;8.43;100.00;100374.19;5113923;28;20103;-69
2021/11/08 04:01:06;;;;;;;11.45;7.32;;;;;;;8.44;100.00;100375.03;5113170;28;20047;-69
2021/11/08 04:03:35;;;;;;;13.02;7.43;;;;;;;8.41;100.00;100394.66;5113159;28;20512;-69
2021/11/08 04:06:04;;;;;;;11.25;7.28;;;;;;;8.43;100.00;100389.25;5113312;28;20227;-69
2021/11/08 04:08:32;;;;;;;12.48;7.65;;;;;;;8.37;100.00;100377.13;5113371;28;20103;-68
2021/11/08 04:11:02;;;;;;;13.13;7.72;;;;;;;8.37;100.00;100387.75;5113315;28;20046;-70
2021/11/08 04:13:37;;;;;;;12.27;7.63;;;;;;;8.30;100.00;100383.66;5113376;28;20119;-71
2021/11/08 04:16:07;;;;;;;12.27;7.57;;;;;;;8.44;100.00;100404.28;5113489;28;20069;-71
2021/11/08 04:18:36;;;;;;;12.38;7.53;;;;;;;8.34;100.00;100379.91;5113597;28;20446;-70
2021/11/08 04:21:05;;;;;;;13.80;8.55;;;;;;;8.28;100.00;100402.31;5112879;28;20916;-70
2021/11/08 04:23:34;;;;;;;12.57;7.57;;;;;;;8.25;100.00;100397.16;5113279;28;20043;-70
2021/11/08 04:26:05;;;;;;;14.20;7.72;;;;;;;8.19;100.00;100396.59;5112940;28;20044;-71
2021/11/08 04:28:34;;;;;;;14.75;8.00;;;;;;;8.20;100.00;100393.00;5113213;28;20043;-70
2021/11/08 04:31:05;;;;;;;13.35;7.90;;;;;;;8.28;100.00;100394.34;5112961;28;20798;-70
2021/11/08 04:33:36;;;;;;;12.77;7.85;;;;;;;8.32;100.00;100395.06;5113492;28;20071;-70
2021/11/08 04:36:23;;;;;;;13.70;8.25;;;;;;;8.20;100.00;100407.16;5113277;28;20040;-70
2021/11/08 04:39:08;;;;;;;14.10;7.18;;;;;;;8.36;100.00;100399.31;5113221;28;20130;-71
2021/11/08 04:41:45;;;;;;;12.45;7.10;;;;;;;8.44;100.00;100398.97;5113376;28;20122;-71
2021/11/08 04:44:38;;;;;;;10.45;7.00;;;;;;;8.39;100.00;100391.19;5113445;28;20048;-71
2021/11/08 04:50:01;;;;;;;13.77;7.80;;;;;;;8.42;100.00;100385.75;5096278;28;20048;-71
2021/11/08 04:52:42;;;;;;;11.60;7.15;;;;;;;8.35;100.00;100381.66;5113250;28;20044;-71
2021/11/08 04:55:22;;;;;;;13.32;7.35;;;;;;;8.26;100.00;100372.31;5112991;28;20039;-71
2021/11/08 04:58:11;;;;;;;12.55;7.72;;;;;;;8.12;100.00;100360.63;5112995;28;20092;-71
2021/11/08 05:23:05;;;;;;;13.48;7.95;;;;;;;8.21;100.00;100426.63;5116148;28;20423;-71
2021/11/08 05:28:31;;;;;;;13.35;8.27;;;;;;;8.11;100.00;100426.19;5115812;28;20458;-71
2021/11/08 05:31:01;;;;;;;12.95;8.10;;;;;;;8.02;100.00;100438.13;5116153;28;20109;-70
2021/11/08 05:33:29;;;;;;;14.38;8.35;;;;;;;7.91;100.00;100460.78;5116346;28;20040;-71
2021/11/08 05:35:58;;;;;;;12.40;8.45;;;;;;;8.01;100.00;100467.41;5115711;28;20477;-71
2021/11/08 05:38:27;;;;;;;15.10;8.95;;;;;;;7.94;100.00;100477.44;5116100;28;20042;-71
2021/11/08 05:40:55;;;;;;;14.15;8.50;;;;;;;8.09;100.00;100472.34;5116065;28;20043;-71
2021/11/08 05:43:23;;;;;;;13.35;7.93;;;;;;;8.12;100.00;100469.56;5116279;28;20047;-71
2021/11/08 05:45:52;;;;;;;13.20;8.38;;;;;;;8.12;100.00;100453.63;5115680;28;20043;-74
2021/11/08 05:48:22;;;;;;;14.77;8.27;;;;;;;8.22;100.00;100460.22;5116128;28;20097;-71
2021/11/08 05:50:51;;;;;;;12.60;7.65;;;;;;;8.25;100.00;100468.06;5115907;28;20438;-70
2021/11/08 05:53:20;;;;;;;14.38;8.32;;;;;;;8.10;100.00;100471.41;5116098;28;20408;-71
2021/11/08 05:55:53;;;;;;;11.98;7.57;;;;;;;8.23;100.00;100461.94;5115789;28;20089;-71
2021/11/08 05:58:44;;;;;;;13.10;7.97;;;;;;;7.95;100.00;100462.38;5116230;28;20043;-71
2021/11/08 06:51:25;;;;;;;14.60;7.90;;;;;;;7.87;100.00;100582.22;5114850;28;20044;-71
2021/11/08 06:54:00;;;;;;;13.20;7.68;;;;;;;7.97;100.00;100583.56;5114236;28;20054;-71
2021/11/08 06:56:32;;;;;;;14.07;8.45;;;;;;;7.90;100.00;100590.06;5114343;28;20051;-72
2021/11/08 06:59:03;;;;;;;14.57;8.05;;;;;;;7.98;100.00;100595.91;5114573;28;20055;-72
2021/11/08 07:01:35;;;;;;;12.98;7.22;;;;;;;7.94;100.00;100599.63;5114030;28;20440;-72
2021/11/08 07:04:03;;;;;;;11.45;7.22;;;;;;;7.89;100.00;100603.41;5114147;28;20051;-71
2021/11/08 07:06:31;;;;;;;15.15;8.02;;;;;;;7.85;100.00;100597.38;5114133;28;20051;-72
2021/11/08 07:09:01;;;;;;;13.68;7.40;;;;;;;7.89;100.00;100595.44;5114173;28;20039;-77
2021/11/08 07:11:31;;;;;;;11.57;7.25;;;;;;;7.97;100.00;100588.88;5114259;28;20067;-69
2021/11/08 07:13:59;;;;;;;15.23;8.07;;;;;;;7.98;100.00;100606.53;5114261;28;20044;-69
2021/11/08 07:16:27;;;;;;;13.02;7.50;;;;;;;8.03;100.00;100604.53;5114224;28;20070;-70
2021/11/08 07:18:56;;;;;;;12.52;7.03;;;;;;;7.98;100.00;100600.34;5114003;28;20473;-70
2021/11/08 07:21:25;;;;;;;12.68;8.20;;;;;;;7.94;100.00;100601.44;5114153;28;20052;-69
2021/11/08 07:23:54;;;;;;;12.98;7.50;;;;;;;7.95;100.00;100605.81;5113952;28;20051;-70
2021/11/08 07:26:27;;;;;;;13.15;8.18;;;;;;;7.90;100.00;100610.44;5095766;28;20090;-69
2021/11/08 07:28:56;;;;;;;13.43;7.07;;;;;;;8.16;100.00;100604.84;5114184;28;20104;-69
2021/11/08 07:31:24;;;;;;;11.88;7.15;;;;;;;8.23;100.00;100600.13;5099166;28;20052;-70
2021/11/08 07:33:52;;;;;;;16.08;7.20;;;;;;;8.35;100.00;100620.88;5113545;28;20067;-70
2021/11/08 07:36:21;;;;;;;11.93;7.00;;;;;;;8.20;100.00;100626.81;5113198;28;20051;-70
2021/11/08 07:38:49;;;;;;;12.43;7.55;;;;;;;8.27;100.00;100623.84;5113248;28;20039;-72
2021/11/08 07:41:18;;;;;;;11.90;6.95;;;;;;;8.16;100.00;100610.16;5113216;28;20435;-74
2021/11/08 07:43:48;;;;;;;12.40;7.40;;;;;;;8.25;100.00;100595.63;5113916;28;20122;-71
2021/11/08 07:46:17;;;;;;;14.52;8.02;;;;;;;8.23;100.00;100592.16;5113307;28;20050;-71
2021/11/08 07:48:46;;;;;;;11.80;7.25;;;;;;;8.24;100.00;100591.22;5113994;28;20047;-71
2021/11/08 07:51:16;;;;;;;12.82;7.47;;;;;;;8.29;100.00;100595.38;5113108;28;20058;-71
2021/11/08 07:53:46;;;;;;;12.82;7.25;;;;;;;8.33;100.00;100601.44;5113531;28;20053;-71
2021/11/08 07:56:14;;;;;;;11.95;7.13;;;;;;;8.32;100.00;100599.72;5110525;28;20492;-71
2021/11/08 07:58:43;;;;;;;11.50;7.03;;;;;;;8.43;100.00;100605.44;5091114;28;20105;-71
2021/11/08 08:01:12;;;;;;;12.45;6.88;;;;;;;8.55;100.00;100618.16;5093156;28;20052;-73
2021/11/08 08:03:41;;;;;;;11.48;6.95;;;;;;;8.60;100.00;100616.16;5091847;28;20044;-71
2021/11/08 08:06:10;;;;;;;12.10;6.57;;;;;;;8.68;100.00;100614.94;5091536;28;20051;-68
2021/11/08 08:08:38;;;;;;;12.00;6.55;;;;;;;8.72;100.00;100630.69;5092056;28;20118;-68
2021/11/08 08:11:07;;;;;;;11.63;7.15;;;;;;;8.78;100.00;100637.50;5091926;28;20051;-70
2021/11/08 08:13:37;;;;;;;10.30;6.57;;;;;;;8.88;100.00;100636.16;5109777;28;20143;-70
2021/11/08 08:16:09;;;;;;;11.75;7.00;;;;;;;8.83;100.00;100624.88;5112138;28;20101;-71
2021/11/08 08:18:38;;;;;;;12.13;7.40;;;;;;;8.93;100.00;100633.28;5110755;28;20040;-71
2021/11/08 08:21:08;;;;;;;11.05;6.75;;;;;;;8.80;100.00;100635.66;5105447;28;20063;-71
2021/11/08 08:23:54;;;;;;;11.30;6.60;;;;;;;8.87;100.00;100632.63;5091362;28;20044;-71
2021/11/08 08:26:24;;;;;;;11.15;6.95;;;;;;;8.81;100.00;100627.59;5099548;28;20059;-71
2021/11/08 08:28:54;;;;;;;10.48;5.00;;;;;;;8.69;100.00;100609.56;5111911;28;20039;-70
2021/11/08 08:31:24;;;;;;;13.15;6.75;;;;;;;8.79;100.00;100616.19;5110517;28;20104;-67
2021/11/08 08:33:54;;;;;;;11.45;6.57;;;;;;;8.77;100.00;100622.47;5111975;28;20132;-69
2021/11/08 08:36:23;;;;;;;10.10;5.38;;;;;;;8.75;100.00;100629.69;5111688;28;20044;-68
2021/11/08 08:38:52;;;;;;;9.75;6.00;;;;;;;8.72;100.00;100640.47;5112522;28;20062;-69
2021/11/08 08:41:21;;;;;;;15.23;6.15;;;;;;;8.86;100.00;100652.19;5112308;28;20157;-69
2021/11/08 08:43:51;;;;;;;9.52;5.80;;;;;;;8.87;100.00;100650.38;5111839;28;20461;-70
2021/11/08 08:46:22;;;;;;;12.05;6.18;;;;;;;8.95;100.00;100647.38;5111992;28;20047;-69
2021/11/08 08:48:53;;;;;;;10.27;5.65;;;;;;;8.91;100.00;100664.41;5112253;28;20396;-69
2021/11/08 08:51:23;;;;;;;10.93;5.65;;;;;;;8.87;100.00;100663.69;5113815;28;20086;-69
2021/11/08 08:53:51;;;;;;;10.30;5.88;;;;;;;9.04;100.00;100662.91;5116441;28;20048;-70
2021/11/08 08:56:21;;;;;;;9.07;5.85;;;;;;;9.18;100.00;100658.66;5115577;28;20043;-69
2021/11/08 08:58:51;;;;;;;11.48;6.28;;;;;;;9.28;100.00;100653.75;5116563;28;20055;-71
2021/11/08 09:01:20;;;;;;;9.68;4.90;;;;;;;9.15;100.00;100655.25;5115955;28;20126;-70
2021/11/08 09:03:49;;;;;;;10.13;6.20;;;;;;;9.07;100.00;100673.38;5115903;28;20058;-70
2021/11/08 09:06:18;;;;;;;10.90;6.45;;;;;;;9.09;100.00;100684.84;5115695;28;20043;-70
2021/11/08 09:08:48;;;;;;;11.27;6.57;;;;;;;9.14;100.00;100691.66;5116228;28;20075;-69
2021/11/08 09:11:18;;;;;;;10.85;5.82;;;;;;;9.32;100.00;100695.25;5115563;28;20040;-70
2021/11/08 09:13:48;;;;;;;10.35;5.57;;;;;;;9.31;100.00;100703.31;5114937;28;20043;-72
2021/11/08 09:16:16;;;;;;;10.40;5.25;;;;;;;9.31;100.00;100698.84;5114059;28;20043;-69
2021/11/08 09:18:49;;;;;;;7.95;5.30;;;;;;;9.14;100.00;100702.31;5115804;28;20043;-70
2021/11/08 09:21:18;;;;;;;8.85;5.38;;;;;;;9.26;100.00;100697.31;5093182;28;20056;-69
2021/11/08 09:23:49;;;;;;;10.18;6.07;;;;;;;9.29;100.00;100699.88;5113544;28;20048;-72
2021/11/08 09:26:20;;;;;;;8.95;5.18;;;;;;;9.20;100.00;100684.34;5113311;28;20055;-71
2021/11/08 09:28:48;;;;;;;10.73;6.05;;;;;;;9.21;100.00;100684.25;5115033;28;20040;-70
2021/11/08 09:31:17;;;;;;;10.52;5.47;;;;;;;9.36;100.00;100690.63;5115053;28;20125;-71
2021/11/08 09:33:45;;;;;;;10.45;5.80;;;;;;;9.43;100.00;100692.06;5115703;28;20469;-71
2021/11/08 09:36:14;;;;;;;12.60;6.50;;;;;;;9.37;100.00;100685.25;5115459;28;20549;-70
2021/11/08 09:38:50;;;;;;;12.07;6.18;;;;;;;9.36;100.00;100687.97;5114327;28;20417;-71
2021/11/08 09:41:22;;;;;;;9.93;5.50;;;;;;;9.49;100.00;100688.25;5114891;28;20045;-71
2021/11/08 09:43:53;;;;;;;10.13;6.05;;;;;;;9.50;100.00;100682.84;5118667;28;20528;-69
2021/11/08 09:46:22;;;;;;;10.05;5.35;;;;;;;9.54;100.00;100679.09;5114878;28;20717;-72
2021/11/08 09:48:52;;;;;;;8.88;5.18;;;;;;;9.50;100.00;100674.84;5114214;28;20036;-72
2021/11/08 09:51:21;;;;;;;10.05;5.40;;;;;;;9.61;100.00;100682.31;5113545;28;20101;-71
2021/11/08 09:53:51;;;;;;;12.35;6.35;;;;;;;9.64;100.00;100676.84;5111917;28;20473;-73
2021/11/08 09:56:21;;;;;;;8.65;5.20;;;;;;;9.64;100.00;100679.50;5114025;28;20096;-71
2021/11/08 09:58:50;;;;;;;8.63;5.05;;;;;;;9.60;100.00;100677.94;5114239;28;20468;-71
2021/11/08 10:01:23;;;;;;;11.40;6.00;;;;;;;9.73;100.00;100674.56;5113940;28;20036;-70
2021/11/08 10:03:52;;;;;;;11.52;6.40;;;;;;;9.80;100.00;100666.28;5114421;28;20089;-73
2021/11/08 10:06:20;;;;;;;14.05;6.10;;;;;;;9.91;100.00;100661.28;5094340;28;20101;-72
2021/11/08 10:08:53;;;;;;;10.18;5.57;;;;;;;9.85;99.42;100661.59;5114661;28;20056;-73
2021/11/08 10:11:26;;;;;;;11.10;5.68;;;;;;;9.77;99.86;100669.13;5114842;28;20190;-72
2021/11/08 10:13:55;;;;;;;9.35;5.55;;;;;;;9.76;100.00;100668.25;5114485;28;20047;-71
2021/11/08 10:16:28;;;;;;;8.23;5.10;;;;;;;9.81;99.24;100658.22;5114348;28;20043;-71
2021/11/08 10:19:03;;;;;;;8.70;4.60;;;;;;;9.78;99.54;100666.38;5114777;28;20050;-71
2021/11/08 10:21:34;;;;;;;8.75;4.70;;;;;;;9.60;100.00;100662.81;5095874;28;20126;-72
2021/11/08 10:24:06;;;;;;;8.57;5.05;;;;;;;9.65;99.73;100659.91;5114341;28;20095;-72
2021/11/08 10:26:39;;;;;;;10.25;5.43;;;;;;;9.67;100.00;100658.91;5113311;28;20044;-76
2021/11/08 10:29:11;;;;;;;12.95;5.10;;;;;;;9.67;100.00;100650.94;5114764;28;20431;-72
2021/11/08 10:31:43;;;;;;;8.82;4.85;;;;;;;9.63;100.00;100657.31;5114420;28;20048;-71
2021/11/08 10:34:13;;;;;;;12.18;5.15;;;;;;;9.57;100.00;100665.63;5114080;28;20040;-69
2021/11/08 10:36:42;;;;;;;10.27;5.47;;;;;;;9.65;100.00;100671.47;5113687;28;20496;-73
2021/11/08 10:39:11;;;;;;;9.32;5.43;;;;;;;9.66;100.00;100677.66;5114192;28;20039;-71
2021/11/08 10:41:45;;;;;;;9.07;5.47;;;;;;;9.75;100.00;100655.88;5114015;28;20046;-72
2021/11/08 10:44:17;;;;;;;13.23;5.30;;;;;;;9.63;100.00;100657.31;5114157;28;20071;-72
2021/11/08 10:46:49;;;;;;;8.93;5.43;;;;;;;9.54;100.00;100664.91;5114119;28;20134;-69
2021/11/08 10:49:20;;;;;;;10.90;5.63;;;;;;;9.56;100.00;100666.59;5113955;28;20484;-71
2021/11/08 10:51:52;;;;;;;9.20;5.53;;;;;;;9.52;100.00;100656.13;5114234;28;20061;-70
2021/11/08 10:54:24;;;;;;;9.38;5.28;;;;;;;9.50;100.00;100650.03;5113831;28;20075;-73
2021/11/08 10:56:58;;;;;;;8.07;5.15;;;;;;;9.57;100.00;100644.34;5113978;28;20392;-72
2021/11/08 10:59:29;;;;;;;11.05;5.00;;;;;;;9.66;100.00;100643.88;5113651;28;20543;-72
2021/11/08 11:02:01;;;;;;;10.63;5.15;;;;;;;9.70;100.00;100632.13;5114170;28;20039;-71
2021/11/08 11:04:33;;;;;;;10.18;4.85;;;;;;;9.80;99.18;100636.97;5113041;28;20036;-71
2021/11/08 11:07:01;;;;;;;11.27;5.25;;;;;;;9.85;99.67;100634.97;5114157;28;20146;-69
2021/11/08 11:09:31;;;;;;;14.63;5.32;;;;;;;9.92;99.69;100641.66;5113665;28;20126;-71
2021/11/08 11:12:10;;;;;;;10.70;5.47;;;;;;;9.99;98.70;100643.94;5113799;28;20078;-70
2021/11/08 11:14:45;;;;;;;8.80;5.60;;;;;;;9.98;99.05;100644.03;5112503;28;20044;-70
2021/11/08 11:17:15;;;;;;;10.98;4.82;;;;;;;10.15;97.89;100649.38;5113647;28;20044;-69
2021/11/08 11:19:45;;;;;;;10.60;5.35;;;;;;;10.16;96.63;100645.75;5112655;28;20118;-70
2021/11/08 11:22:17;;;;;;;9.23;5.00;;;;;;;10.07;97.57;100635.56;5112940;28;20047;-70
2021/11/08 11:24:49;;;;;;;10.52;4.60;;;;;;;10.04;96.69;100641.94;5112411;28;20043;-70
2021/11/08 11:27:31;;;;;;;9.75;4.57;;;;;;;10.08;97.21;100642.63;5113095;28;20043;-75
2021/11/08 11:30:13;;;;;;;10.52;4.68;;;;;;;10.25;97.38;100639.13;5113075;28;20116;-73
2021/11/08 11:32:42;;;;;;;9.98;4.80;;;;;;;10.12;97.49;100637.97;5112700;28;20032;-72
2021/11/08 11:35:13;;;;;;;9.93;4.65;;;;;;;10.25;97.32;100650.63;5112429;28;20070;-73
2021/11/08 11:37:51;;;;;;;10.20;4.50;;;;;;;10.11;97.19;100649.59;5112054;28;20036;-73
2021/11/08 11:40:20;;;;;;;11.13;4.70;;;;;;;10.10;97.41;100640.72;5113176;28;20054;-72
2021/11/08 11:42:53;;;;;;;8.13;4.60;;;;;;;10.21;95.45;100643.69;5112545;28;20552;-71
2021/11/08 11:45:22;;;;;;;10.80;4.80;;;;;;;10.18;96.55;100633.19;5112414;28;20070;-72
2021/11/08 11:47:58;;;;;;;8.48;4.53;;;;;;;10.04;97.54;100638.41;5112865;28;20456;-72
2021/11/08 11:50:28;;;;;;;9.10;4.80;;;;;;;10.16;97.41;100645.75;5112709;28;20047;-70
2021/11/08 11:52:59;;;;;;;11.35;4.57;;;;;;;10.18;96.64;100643.84;5113105;28;20074;-71
2021/11/08 11:55:28;;;;;;;10.77;4.47;;;;;;;10.19;95.40;100656.25;5112325;28;20536;-69
2021/11/08 11:58:01;;;;;;;9.38;4.13;;;;;;;10.29;95.01;100649.50;5112690;28;20057;-70
2021/11/08 12:00:31;;;;;;;8.65;3.83;;;;;;;10.31;95.61;100642.28;5112700;28;20054;-70
2021/11/08 12:03:00;;;;;;;10.70;4.40;;;;;;;10.39;94.45;100635.69;5112760;28;20122;-72
2021/11/08 12:05:29;;;;;;;9.80;4.03;;;;;;;10.32;94.46;100638.69;5112107;28;20040;-72
2021/11/08 12:08:01;;;;;;;7.97;3.40;;;;;;;10.38;94.07;100636.66;5112484;28;20076;-71
2021/11/08 12:10:29;;;;;;;5.85;2.92;;;;;;;10.37;93.18;100632.25;5112253;28;20134;-72
2021/11/08 12:12:59;;;;;;;7.00;4.10;;;;;;;10.27;93.34;100640.75;5094523;28;20059;-71
2021/11/08 12:15:30;;;;;;;7.15;3.70;;;;;;;10.25;93.16;100639.97;5111965;28;20047;-72
2021/11/08 12:18:06;;;;;;;9.15;3.80;;;;;;;10.28;93.23;100634.47;5111697;28;20039;-72
2021/11/08 12:20:43;;;;;;;6.78;3.40;;;;;;;10.36;91.88;100633.22;5111030;28;20078;-71
2021/11/08 12:23:15;;;;;;;8.65;4.05;;;;;;;10.31;93.50;100630.78;5112615;28;20044;-71
2021/11/08 12:25:45;;;;;;;8.32;3.75;;;;;;;10.40;92.54;100622.28;5100594;28;20055;-71
2021/11/08 12:28:17;;;;;;;9.52;3.88;;;;;;;10.42;92.97;100624.84;5118819;28;20067;-75
2021/11/08 12:30:49;;;;;;;7.13;4.00;;;;;;;10.42;91.88;100632.84;5118441;28;20130;-70
2021/11/08 12:33:27;;;;;;;10.18;3.58;;;;;;;10.42;91.39;100630.19;5119498;28;20062;-70
2021/11/08 12:35:59;;;;;;;7.22;3.72;;;;;;;10.44;91.44;100633.66;5118768;28;20042;-72
2021/11/08 12:38:29;;;;;;;7.82;3.72;;;;;;;10.47;91.14;100621.00;5119578;28;20482;-71
2021/11/08 12:41:08;;;;;;;9.63;3.35;;;;;;;10.56;90.81;100617.00;5119934;28;20430;-70
2021/11/08 12:43:40;;;;;;;8.13;3.30;;;;;;;10.55;89.82;100632.13;5119452;28;20400;-70
2021/11/08 12:46:11;;;;;;;8.27;3.58;;;;;;;10.54;87.98;100629.56;5119173;28;20046;-69
2021/11/08 12:48:39;;;;;;;7.53;2.90;;;;;;;10.56;87.15;100627.66;5119143;28;20071;-69
2021/11/08 12:51:10;;;;;;;6.75;2.78;;;;;;;10.49;86.11;100629.78;5119719;28;20036;-70
2021/11/08 12:53:40;;;;;;;6.03;2.80;;;;;;;10.41;87.45;100625.81;5118855;28;20442;-70
2021/11/08 12:56:23;;;;;;;10.27;2.97;;;;;;;10.44;86.35;100636.34;5118876;28;20048;-69